createdAt,value
2023-03-03T00:00:46.754Z,19.10
2023-03-03T00:03:40.167Z,19.10
2023-03-03T00:06:33.737Z,19.10
2023-03-03T00:09:27.742Z,19.00
2023-03-03T00:12:25.401Z,19.10
2023-03-03T00:15:21.365Z,19.00
2023-03-03T00:18:26.522Z,19.00
2023-03-03T00:21:26.502Z,19.00
2023-03-03T00:24:22.840Z,19.00
2023-03-03T00:27:28.455Z,19.00
2023-03-03T00:30:25.996Z,19.00
2023-03-03T00:33:29.339Z,19.00
2023-03-03T00:36:31.582Z,19.00
2023-03-03T00:39:31.690Z,19.00
2023-03-03T00:42:28.488Z,18.90
2023-03-03T00:45:30.968Z,19.00
2023-03-03T00:48:27.190Z,18.90
2023-03-03T00:51:28.964Z,18.90
2023-03-03T00:54:22.056Z,18.90
2023-03-03T00:57:15.690Z,18.90
2023-03-03T01:00:12.649Z,18.90
2023-03-03T01:03:08.004Z,18.90
2023-03-03T01:06:00.560Z,18.90
2023-03-03T01:08:54.175Z,18.90
2023-03-03T01:11:47.960Z,18.90
2023-03-03T01:14:41.454Z,18.90
2023-03-03T01:17:36.551Z,18.90
2023-03-03T01:20:29.716Z,18.80
2023-03-03T01:23:23.263Z,18.80
2023-03-03T01:26:17.114Z,18.90
2023-03-03T01:29:10.815Z,18.80
2023-03-03T01:32:03.518Z,18.80
2023-03-03T01:34:58.379Z,18.80
2023-03-03T01:37:51.714Z,18.80
2023-03-03T01:40:54.287Z,18.80
2023-03-03T01:43:49.584Z,18.80
2023-03-03T01:46:50.264Z,18.80
2023-03-03T01:49:49.805Z,18.80
2023-03-03T01:52:47.280Z,18.80
2023-03-03T01:55:43.236Z,18.80
2023-03-03T01:58:38.606Z,18.80
2023-03-03T02:01:33.923Z,18.80
2023-03-03T02:04:28.321Z,18.80
2023-03-03T02:07:24.069Z,18.80
2023-03-03T02:10:19.374Z,18.70
2023-03-03T02:13:13.900Z,18.70
2023-03-03T02:16:07.950Z,18.70
2023-03-03T02:19:01.008Z,18.70
2023-03-03T02:21:54.050Z,18.70
2023-03-03T02:24:52.595Z,18.70
2023-03-03T02:27:47.035Z,18.70
2023-03-03T02:30:40.579Z,18.70
2023-03-03T02:33:33.934Z,18.70
2023-03-03T02:36:30.103Z,18.70
2023-03-03T02:39:24.468Z,18.70
2023-03-03T02:42:21.388Z,18.70
2023-03-03T02:45:16.165Z,18.70
2023-03-03T02:48:09.059Z,18.70
2023-03-03T02:51:01.988Z,18.60
2023-03-03T02:53:55.168Z,18.60
2023-03-03T02:56:48.230Z,18.60
2023-03-03T02:59:41.926Z,18.60
2023-03-03T03:02:36.351Z,18.60
2023-03-03T03:05:30.053Z,18.60
2023-03-03T03:08:22.975Z,18.60
2023-03-03T03:11:16.307Z,18.60
2023-03-03T03:14:11.916Z,18.60
2023-03-03T03:17:05.547Z,18.60
2023-03-03T03:19:59.958Z,18.60
2023-03-03T03:22:53.077Z,18.60
2023-03-03T03:25:46.540Z,18.60
2023-03-03T03:28:40.280Z,18.60
2023-03-03T03:31:34.019Z,18.60
2023-03-03T03:34:28.971Z,18.60
2023-03-03T03:37:23.012Z,18.60
2023-03-03T03:40:18.615Z,18.50
2023-03-03T03:43:11.984Z,18.60
2023-03-03T03:46:05.226Z,18.50
2023-03-03T03:48:58.954Z,18.50
2023-03-03T03:51:52.015Z,18.50
2023-03-03T03:54:46.475Z,18.50
2023-03-03T03:57:40.041Z,18.50
2023-03-03T04:00:36.785Z,18.50
2023-03-03T04:03:29.866Z,18.50
2023-03-03T04:06:22.556Z,18.50
2023-03-03T04:09:15.766Z,18.50
2023-03-03T04:12:10.752Z,18.50
2023-03-03T04:15:03.925Z,18.50
2023-03-03T04:17:57.061Z,18.50
2023-03-03T04:20:54.675Z,18.50
2023-03-03T04:23:48.238Z,18.50
2023-03-03T04:26:41.100Z,18.50
2023-03-03T04:29:35.417Z,18.50
2023-03-03T04:32:28.998Z,18.40
2023-03-03T04:35:21.804Z,18.40
2023-03-03T04:38:14.938Z,18.40
2023-03-03T04:41:08.114Z,18.40
2023-03-03T04:44:02.069Z,18.40
2023-03-03T04:46:56.058Z,18.40
2023-03-03T04:49:50.606Z,18.40
2023-03-03T04:52:43.835Z,18.40
2023-03-03T04:55:37.912Z,18.40
2023-03-03T04:58:30.815Z,18.40
2023-03-03T05:01:25.965Z,18.40
2023-03-03T05:04:20.171Z,18.40
2023-03-03T05:07:13.075Z,18.40
2023-03-03T05:10:06.685Z,18.30
2023-03-03T05:13:02.254Z,18.30
2023-03-03T05:15:56.517Z,18.30
2023-03-03T05:18:49.848Z,18.30
2023-03-03T05:21:44.394Z,18.30
2023-03-03T05:24:38.317Z,18.30
2023-03-03T05:27:32.388Z,18.30
2023-03-03T05:30:26.197Z,18.30
2023-03-03T05:33:19.159Z,18.30
2023-03-03T05:36:12.221Z,18.30
2023-03-03T05:39:06.430Z,18.20
2023-03-03T05:42:00.959Z,18.20
2023-03-03T05:44:53.829Z,18.20
2023-03-03T05:47:47.446Z,18.20
2023-03-03T05:50:41.363Z,18.20
2023-03-03T05:53:35.377Z,18.20
2023-03-03T05:56:30.256Z,18.20
2023-03-03T05:59:23.212Z,18.20
2023-03-03T06:02:17.937Z,18.20
2023-03-03T06:05:12.687Z,18.20
2023-03-03T06:08:06.485Z,18.20
2023-03-03T06:11:00.397Z,18.20
2023-03-03T06:13:55.486Z,18.20
2023-03-03T06:16:49.864Z,18.20
2023-03-03T06:19:43.185Z,18.10
2023-03-03T06:22:36.239Z,18.10
2023-03-03T06:25:28.893Z,18.10
2023-03-03T06:28:21.839Z,18.10
2023-03-03T06:31:16.699Z,18.10
2023-03-03T06:34:10.348Z,18.10
2023-03-03T06:37:03.241Z,18.10
2023-03-03T06:39:56.381Z,18.10
2023-03-03T06:42:49.857Z,18.10
2023-03-03T06:45:43.313Z,18.10
2023-03-03T06:48:43.826Z,18.10
2023-03-03T06:51:39.812Z,18.10
2023-03-03T06:54:32.647Z,18.00
2023-03-03T06:57:29.335Z,18.00
2023-03-03T07:00:25.852Z,18.00
2023-03-03T07:03:23.136Z,18.00
2023-03-03T07:06:24.356Z,18.00
2023-03-03T07:09:22.466Z,18.00
2023-03-03T07:12:19.022Z,18.00
2023-03-03T07:15:17.487Z,18.00
2023-03-03T07:18:40.488Z,18.00
2023-03-03T07:21:37.866Z,18.00
2023-03-03T07:24:32.383Z,18.00
2023-03-03T07:27:27.340Z,18.00
2023-03-03T07:30:26.728Z,17.90
2023-03-03T07:33:27.227Z,17.90
2023-03-03T07:36:28.630Z,17.90
2023-03-03T07:39:38.445Z,17.90
2023-03-03T07:42:39.215Z,17.90
2023-03-03T07:45:38.646Z,17.90
2023-03-03T07:48:36.787Z,17.90
2023-03-03T07:51:37.578Z,17.80
2023-03-03T07:54:36.252Z,17.80
2023-03-03T07:57:34.950Z,17.80
2023-03-03T08:01:12.833Z,17.80
2023-03-03T08:04:15.646Z,17.80
2023-03-03T08:07:16.431Z,17.80
2023-03-03T08:10:32.823Z,17.80
2023-03-03T08:13:30.143Z,17.80
2023-03-03T08:16:30.370Z,17.80
2023-03-03T08:19:23.411Z,17.80
2023-03-03T08:22:18.957Z,17.80
2023-03-03T08:25:13.328Z,17.80
2023-03-03T08:28:06.225Z,17.80
2023-03-03T08:31:14.312Z,17.80
2023-03-03T08:34:10.463Z,17.80
2023-03-03T08:37:04.266Z,17.80
2023-03-03T08:39:57.740Z,17.80
2023-03-03T08:42:54.107Z,17.80
2023-03-03T08:45:48.668Z,17.80
2023-03-03T08:48:41.898Z,17.80
2023-03-03T08:51:35.240Z,17.80
2023-03-03T08:54:27.991Z,17.80
2023-03-03T08:57:21.467Z,17.90
2023-03-03T09:00:17.629Z,17.80
2023-03-03T09:03:11.973Z,17.80
2023-03-03T09:06:05.464Z,17.80
2023-03-03T09:08:59.358Z,17.80
2023-03-03T09:11:55.854Z,17.90
2023-03-03T09:14:49.205Z,17.90
2023-03-03T09:17:44.387Z,17.90
2023-03-03T09:20:38.655Z,17.90
2023-03-03T09:23:36.173Z,17.90
2023-03-03T09:26:31.582Z,17.90
2023-03-03T09:29:27.951Z,17.90
2023-03-03T09:32:34.604Z,17.90
2023-03-03T09:35:38.285Z,17.90
2023-03-03T09:38:32.952Z,17.90
2023-03-03T09:41:53.832Z,17.90
2023-03-03T09:45:25.314Z,18.00
2023-03-03T09:48:42.547Z,18.10
2023-03-03T09:52:16.112Z,18.20
2023-03-03T09:55:38.068Z,18.40
2023-03-03T09:58:56.468Z,18.60
2023-03-03T10:02:09.346Z,18.70
2023-03-03T10:05:35.683Z,19.00
2023-03-03T10:08:47.302Z,19.10
2023-03-03T10:11:50.801Z,19.30
2023-03-03T10:15:02.830Z,19.50
2023-03-03T10:18:04.341Z,19.60
2023-03-03T10:21:06.480Z,19.70
2023-03-03T10:24:15.965Z,19.80
2023-03-03T10:27:23.146Z,19.90
2023-03-03T10:30:38.938Z,20.10
2023-03-03T10:37:01.377Z,20.40
2023-03-03T10:40:10.739Z,20.50
2023-03-03T10:43:31.179Z,20.50
2023-03-03T10:46:51.126Z,20.60
2023-03-03T10:50:01.410Z,20.60
2023-03-03T10:52:58.876Z,20.70
2023-03-03T10:56:09.556Z,20.70
2023-03-03T10:59:15.501Z,20.80
2023-03-03T11:02:18.117Z,20.80
2023-03-03T11:05:30.312Z,20.80
2023-03-03T11:08:30.958Z,20.90
2023-03-03T11:11:33.855Z,20.90
2023-03-03T11:14:34.748Z,21.00
2023-03-03T11:17:36.765Z,21.00
2023-03-03T11:20:39.829Z,21.00
2023-03-03T11:23:59.798Z,21.00
2023-03-03T11:27:23.107Z,21.10
2023-03-03T11:30:41.197Z,21.10
2023-03-03T11:33:40.771Z,21.10
2023-03-03T11:36:38.277Z,21.10
2023-03-03T11:39:31.686Z,21.20
2023-03-03T11:42:34.952Z,21.20
2023-03-03T11:45:35.376Z,21.30
2023-03-03T11:48:37.586Z,21.30
2023-03-03T11:51:42.344Z,21.40
2023-03-03T11:54:42.981Z,21.40
2023-03-03T11:57:42.916Z,21.40
2023-03-03T12:00:41.552Z,21.50
2023-03-03T12:03:38.733Z,21.40
2023-03-03T12:06:42.034Z,21.50
2023-03-03T12:09:43.116Z,21.60
2023-03-03T12:12:44.325Z,21.70
2023-03-03T12:15:48.115Z,21.60
2023-03-03T12:18:55.275Z,21.70
2023-03-03T12:22:08.051Z,21.70
2023-03-03T12:25:13.216Z,21.80
2023-03-03T12:28:12.232Z,21.80
2023-03-03T12:31:27.040Z,21.80
2023-03-03T12:34:28.109Z,21.80
2023-03-03T12:37:44.221Z,21.90
2023-03-03T12:40:46.039Z,21.90
2023-03-03T12:43:56.083Z,21.90
2023-03-03T12:46:59.358Z,21.90
2023-03-03T12:50:08.306Z,21.90
2023-03-03T12:53:11.614Z,21.90
2023-03-03T12:56:08.272Z,21.90
2023-03-03T12:59:11.630Z,21.90
2023-03-03T13:02:26.448Z,21.90
2023-03-03T13:05:28.316Z,21.90
2023-03-03T13:08:37.807Z,21.90
2023-03-03T13:11:45.895Z,21.90
2023-03-03T13:14:48.617Z,21.90
2023-03-03T13:17:49.925Z,21.90
2023-03-03T13:20:50.806Z,21.90
2023-03-03T13:23:52.434Z,21.90
2023-03-03T13:26:50.911Z,21.80
2023-03-03T13:29:55.584Z,21.80
2023-03-03T13:32:55.682Z,21.80
2023-03-03T13:35:54.999Z,21.70
2023-03-03T13:38:50.749Z,21.70
2023-03-03T13:41:50.637Z,21.70
2023-03-03T13:44:47.136Z,21.60
2023-03-03T13:47:49.468Z,21.50
2023-03-03T13:50:48.364Z,21.50
2023-03-03T13:53:48.478Z,21.50
2023-03-03T13:57:06.785Z,21.40
2023-03-03T14:00:14.181Z,21.40
2023-03-03T14:03:24.840Z,21.30
2023-03-03T14:06:20.902Z,21.30
2023-03-03T14:09:33.145Z,21.30
2023-03-03T14:12:38.417Z,21.20
2023-03-03T14:15:36.717Z,21.20
2023-03-03T14:18:35.067Z,21.20
2023-03-03T14:21:36.672Z,21.20
2023-03-03T14:24:29.718Z,21.20
2023-03-03T14:27:26.887Z,21.10
2023-03-03T14:30:31.328Z,21.10
2023-03-03T14:33:32.300Z,21.10
2023-03-03T14:36:30.558Z,21.00
2023-03-03T14:39:34.478Z,21.00
2023-03-03T14:42:39.286Z,21.00
2023-03-03T14:45:36.085Z,21.00
2023-03-03T14:48:32.690Z,21.00
2023-03-03T14:51:28.900Z,20.90
2023-03-03T14:54:26.370Z,20.90
2023-03-03T14:57:21.596Z,20.90
2023-03-03T15:00:36.219Z,20.90
2023-03-03T15:03:30.849Z,20.80
2023-03-03T15:06:35.342Z,20.80
2023-03-03T15:09:36.853Z,20.80
2023-03-03T15:12:37.335Z,20.70
2023-03-03T15:15:30.717Z,20.70
2023-03-03T15:18:23.581Z,20.70
2023-03-03T15:21:23.562Z,20.60
2023-03-03T15:24:25.110Z,20.60
2023-03-03T15:27:24.397Z,20.60
2023-03-03T15:30:25.922Z,20.60
2023-03-03T15:33:30.374Z,20.60
2023-03-03T15:36:35.602Z,20.60
2023-03-03T15:39:36.350Z,20.50
2023-03-03T15:42:39.140Z,20.50
2023-03-03T15:45:37.006Z,20.50
2023-03-03T15:48:46.199Z,20.50
2023-03-03T15:52:03.102Z,20.50
2023-03-03T15:55:28.065Z,20.50
2023-03-03T15:58:45.049Z,20.40
2023-03-03T16:01:45.296Z,20.40
2023-03-03T16:04:44.996Z,20.40
2023-03-03T16:07:49.462Z,20.40
2023-03-03T16:10:53.404Z,20.40
2023-03-03T16:14:02.604Z,20.40
2023-03-03T16:17:04.959Z,20.30
2023-03-03T16:20:09.052Z,20.40
2023-03-03T16:23:18.287Z,20.30
2023-03-03T16:26:32.030Z,20.40
2023-03-03T16:29:43.593Z,20.40
2023-03-03T16:32:42.716Z,20.30
2023-03-03T16:35:40.404Z,20.30
2023-03-03T16:38:39.752Z,20.30
2023-03-03T16:41:44.290Z,20.30
2023-03-03T16:44:48.433Z,20.30
2023-03-03T16:48:00.595Z,20.30
2023-03-03T16:51:12.301Z,20.20
2023-03-03T16:54:13.623Z,20.20
2023-03-03T16:57:17.377Z,20.20
2023-03-03T17:00:15.594Z,20.20
2023-03-03T17:03:48.747Z,20.20
2023-03-03T17:06:49.601Z,20.20
2023-03-03T17:09:54.808Z,20.20
2023-03-03T17:13:16.601Z,20.20
2023-03-03T17:16:15.667Z,20.20
2023-03-03T17:19:21.695Z,20.20
2023-03-03T17:22:21.012Z,20.10
2023-03-03T17:25:22.698Z,20.10
2023-03-03T17:28:29.204Z,20.10
2023-03-03T17:31:30.837Z,20.10
2023-03-03T17:34:40.429Z,20.10
2023-03-03T17:37:39.508Z,20.10
2023-03-03T17:40:47.675Z,20.10
2023-03-03T17:43:52.565Z,20.10
2023-03-03T17:46:49.532Z,20.10
2023-03-03T17:50:05.076Z,20.10
2023-03-03T17:53:19.364Z,20.10
2023-03-03T17:56:22.477Z,20.10
2023-03-03T17:59:37.551Z,20.10
2023-03-03T18:03:06.690Z,20.10
2023-03-03T18:06:14.837Z,20.10
2023-03-03T18:09:26.070Z,20.00
2023-03-03T18:12:31.238Z,20.00
2023-03-03T18:15:39.033Z,20.00
2023-03-03T18:18:58.818Z,20.00
2023-03-03T18:21:59.081Z,20.00
2023-03-03T18:25:00.885Z,20.00
2023-03-03T18:28:21.185Z,20.00
2023-03-03T18:31:25.178Z,20.00
2023-03-03T18:34:37.733Z,20.00
2023-03-03T18:37:41.489Z,20.00
2023-03-03T18:40:35.836Z,20.00
2023-03-03T18:43:59.504Z,20.00
2023-03-03T18:46:58.668Z,20.00
2023-03-03T18:50:04.287Z,20.00
2023-03-03T18:53:19.002Z,20.00
2023-03-03T18:56:12.939Z,20.00
2023-03-03T18:59:10.484Z,19.90
2023-03-03T19:02:19.240Z,19.90
2023-03-03T19:05:23.245Z,19.90
2023-03-03T19:08:22.820Z,19.90
2023-03-03T19:11:37.285Z,19.90
2023-03-03T19:14:38.189Z,19.90
2023-03-03T19:17:50.277Z,19.90
2023-03-03T19:20:48.047Z,19.90
2023-03-03T19:23:51.641Z,19.90
2023-03-03T19:27:16.416Z,19.90
2023-03-03T19:30:38.063Z,19.90
2023-03-03T19:33:53.995Z,19.90
2023-03-03T19:37:05.766Z,19.90
2023-03-03T19:40:04.353Z,19.90
2023-03-03T19:43:09.824Z,19.90
2023-03-03T19:46:25.265Z,19.90
2023-03-03T19:49:29.141Z,19.90
2023-03-03T19:52:31.376Z,19.90
2023-03-03T19:55:29.041Z,19.90
2023-03-03T19:58:31.563Z,19.90
2023-03-03T20:01:30.787Z,19.90
2023-03-03T20:04:50.687Z,19.90
2023-03-03T20:07:50.781Z,19.90
2023-03-03T20:10:50.205Z,19.90
2023-03-03T20:13:54.702Z,19.90
2023-03-03T20:16:51.608Z,19.90
2023-03-03T20:19:53.038Z,19.90
2023-03-03T20:22:56.279Z,19.90
2023-03-03T20:25:54.129Z,19.90
2023-03-03T20:29:35.749Z,19.90
2023-03-03T20:32:45.085Z,19.90
2023-03-03T20:35:47.456Z,19.80
2023-03-03T20:38:48.658Z,19.90
2023-03-03T20:41:58.786Z,19.90
2023-03-03T20:45:06.249Z,19.80
2023-03-03T20:48:14.054Z,19.90
2023-03-03T20:51:12.302Z,19.90
2023-03-03T20:54:18.985Z,19.80
2023-03-03T20:57:20.461Z,19.80
2023-03-03T21:00:20.922Z,19.90
2023-03-03T21:03:20.469Z,19.80
2023-03-03T21:06:16.291Z,19.80
2023-03-03T21:09:22.552Z,19.80
2023-03-03T21:12:28.929Z,19.80
2023-03-03T21:15:31.546Z,19.80
2023-03-03T21:18:27.441Z,19.80
2023-03-03T21:21:20.635Z,19.80
2023-03-03T21:24:19.579Z,19.80
2023-03-03T21:27:26.538Z,19.80
2023-03-03T21:30:20.513Z,19.80
2023-03-03T21:33:41.355Z,19.80
2023-03-03T21:36:47.777Z,19.80
2023-03-03T21:39:43.620Z,19.80
2023-03-03T21:42:42.110Z,19.70
2023-03-03T21:45:36.578Z,19.70
2023-03-03T21:48:29.766Z,19.70
2023-03-03T21:51:25.473Z,19.70
2023-03-03T21:54:19.123Z,19.70
2023-03-03T21:57:13.513Z,19.70
2023-03-03T22:00:09.207Z,19.70
2023-03-03T22:03:02.784Z,19.70
2023-03-03T22:05:56.245Z,19.70
2023-03-03T22:08:51.233Z,19.70
2023-03-03T22:11:44.484Z,19.70
2023-03-03T22:14:37.830Z,19.70
2023-03-03T22:17:30.968Z,19.70
2023-03-03T22:20:23.640Z,19.70
2023-03-03T22:23:18.811Z,19.70
2023-03-03T22:26:13.283Z,19.70
2023-03-03T22:29:07.081Z,19.70
2023-03-03T22:32:00.224Z,19.70
2023-03-03T22:34:53.918Z,19.70
2023-03-03T22:37:46.863Z,19.70
2023-03-03T22:40:39.885Z,19.60
2023-03-03T22:43:34.563Z,19.60
2023-03-03T22:46:28.171Z,19.60
2023-03-03T22:49:21.870Z,19.70
2023-03-03T22:52:15.351Z,19.60
2023-03-03T22:55:09.965Z,19.70
2023-03-03T22:58:02.970Z,19.60
2023-03-03T23:00:57.399Z,19.60
2023-03-03T23:03:51.187Z,19.60
2023-03-03T23:06:45.005Z,19.60
2023-03-03T23:09:37.831Z,19.60
2023-03-03T23:12:31.189Z,19.60
2023-03-03T23:15:24.902Z,19.60
2023-03-03T23:18:19.124Z,19.60
2023-03-03T23:21:11.996Z,19.60
2023-03-03T23:24:05.151Z,19.60
2023-03-03T23:27:00.537Z,19.60
2023-03-03T23:29:54.779Z,19.60
2023-03-03T23:32:49.131Z,19.60
2023-03-03T23:35:45.350Z,19.60
2023-03-03T23:38:40.761Z,19.60
2023-03-03T23:41:36.049Z,19.60
2023-03-03T23:44:28.954Z,19.60
2023-03-03T23:47:22.085Z,19.60
2023-03-03T23:50:15.529Z,19.60
2023-03-03T23:53:10.575Z,19.60
2023-03-03T23:56:04.464Z,19.60
2023-03-03T23:58:57.894Z,19.60
